This is the latest recevied weather packets stored in our database for station/object K5RWS. If no packets are shown the sender has not sent any weather packets the latest 1 day(s).
| Time | Temp. | Humidity | Pressure | Rain* | Wind** | Luminosity | Snow |
|---|---|---|---|---|---|---|---|
| 1778106754 | 18.89° C | 31% | 1016 hPa | 0 mm | - | 460 W/m² | - |
| 1778104018 | 17.22° C | 33% | 1015.4 hPa | 0 mm | - | 266 W/m² | - |
| 1778103110 | 18.89° C | 26% | 1015.3 hPa | 0 mm | - | 139 W/m² | - |
| 1778102808 | 18.89° C | 26% | 1015 hPa | 0 mm | - | 200 W/m² | - |
| 1778100686 | 19.44° C | 25% | 1015.3 hPa | 0 mm | - | 365 W/m² | - |
| 1778095838 | 17.78° C | 30% | 1016.1 hPa | 0 mm | - | 912 W/m² | - |
| 1778095535 | 17.78° C | 30% | 1016 hPa | 0 mm | - | 206 W/m² | - |
| 1778093110 | 16.67° C | 32% | 1016.3 hPa | 0 mm | - | 628 W/m² | - |
| 1778091897 | 17.22° C | 32% | 1016.7 hPa | 0 mm | - | 261 W/m² | - |
| 1778090684 | 17.22° C | 33% | 1016.9 hPa | 0 mm | - | 175 W/m² | - |
| 1778090078 | 16.67° C | 34% | 1017.4 hPa | 0 mm | - | 427 W/m² | - |
| 1778089774 | 16.11° C | 34% | 1017.3 hPa | 0 mm | - | 888 W/m² | - |
| 1778088866 | 16.11° C | 34% | 1017.3 hPa | 0 mm | - | 871 W/m² | - |
| 1778087643 | 16.11° C | 35% | 1017.5 hPa | 0 mm | - | 248 W/m² | - |
| 1778084907 | 14.44° C | 38% | 1017.4 hPa | 0 mm | - | 622 W/m² | - |
| 1778084000 | 13.89° C | 39% | 1017.4 hPa | 0 mm | - | 576 W/m² | - |
| 1778083394 | 13.89° C | 39% | 1017.3 hPa | 0 mm | - | 552 W/m² | - |
| 1778083093 | 13.33° C | 41% | 1017.4 hPa | 0 mm | - | 538 W/m² | - |
| 1778081359 | 12.78° C | 45% | 1017.6 hPa | 0 mm | - | 459 W/m² | - |
| 1778078330 | 10.56° C | 53% | 1018 hPa | 0 mm | - | 304 W/m² | - |
| 1778076516 | 10° C | 53% | 1018.1 hPa | 0 mm | - | 169 W/m² | - |
| 1778076213 | 10.56° C | 52% | 1018 hPa | 0 mm | - | 165 W/m² | - |
| 1778075910 | 10° C | 53% | 1017.9 hPa | 0 mm | - | 255 W/m² | - |
| 1778075303 | 10° C | 55% | 1018.1 hPa | 0 mm | - | 231 W/m² | - |
| 1778074090 | 8.89° C | 59% | 1018.1 hPa | 0 mm | - | 124 W/m² | - |
* Rain latest hour (hover to see other rain measurements)
** Current wind speed in m/s (hover to see current wind gust speed)